Time;durP1;ratioP1;P1;durP2;ratioP2;P2;SDS_P1;SDS_P2;PMS_P1;PMS_P2;Temp;Humidity;BMP_temperature;BMP_pressure;BME280_temperature;BME280_humidity;BME280_pressure;Samples;Min_cycle;Max_cycle;Signal;HPM_P1;HPM_P2
2022/03/19 00:00:58;;;;;;;20.55;11.35;;;;;;;6.52;74.73;104323.38;5027781;28;20308;-84
2022/03/19 00:03:26;;;;;;;20.85;11.82;;;;;;;6.51;75.08;104311.38;5010489;28;20045;-84
2022/03/19 00:06:05;;;;;;;;;;;;;;;;;;;;;
2022/03/19 00:08:46;;;;;;;;;;;;;;;;;;;;;
2022/03/19 00:11:23;;;;;;;17.38;11.73;;;;;;;6.73;75.48;104349.00;5007380;28;20492;-84
2022/03/19 00:14:14;;;;;;;;;;;;;;;;;;;;;
2022/03/19 00:17:10;;;;;;;18.42;11.60;;;;;;;6.52;75.51;104313.06;5015083;28;20029;-84
2022/03/19 00:20:12;;;;;;;;;;;;;;;;;;;;;
2022/03/19 00:23:18;;;;;;;16.63;10.82;;;;;;;6.43;75.50;104308.00;5008994;28;20046;-84
2022/03/19 00:26:20;;;;;;;;;;;;;;;;;;;;;
2022/03/19 00:32:12;;;;;;;18.88;11.02;;;;;;;6.49;75.89;104331.16;4985903;28;20469;-84
2022/03/19 00:35:07;;;;;;;15.65;10.52;;;;;;;6.52;77.01;104333.69;5026733;28;20516;-84
2022/03/19 00:38:16;;;;;;;16.42;9.48;;;;;;;6.48;76.46;104326.84;5017507;28;20025;-84
2022/03/19 00:40:43;;;;;;;21.05;10.70;;;;;;;6.49;76.80;104328.59;5005435;28;20029;-84
2022/03/19 00:43:32;;;;;;;;;;;;;;;;;;;;;
2022/03/19 00:46:18;;;;;;;;;;;;;;;;;;;;;
2022/03/19 00:48:59;;;;;;;;;;;;;;;;;;;;;
2022/03/19 00:51:38;;;;;;;18.20;10.07;;;;;;;6.25;77.18;104299.56;5023198;28;20025;-84
2022/03/19 00:54:07;;;;;;;14.95;9.93;;;;;;;6.44;77.44;104336.34;5008473;28;20029;-84
2022/03/19 00:56:35;;;;;;;;;;;;;;;6.69;76.25;104362.78;5020161;28;20036;-84
2022/03/19 00:59:13;;;;;;;;;;;;;;;;;;;;;
2022/03/19 01:02:08;;;;;;;;;;;;;;;;;;;;;
2022/03/19 01:04:44;;;;;;;17.38;9.95;;;;;;;6.41;76.96;104343.25;5025707;28;20035;-84
2022/03/19 01:07:16;;;;;;;15.98;9.27;;;;;;;6.20;77.49;104316.78;5026055;28;20040;-85
2022/03/19 01:09:52;;;;;;;18.67;9.65;;;;;;;6.29;77.17;104337.31;5008272;28;20449;-84
2022/03/19 01:12:27;;;;;;;17.17;9.57;;;;;;;6.37;77.76;104350.16;5025824;28;20017;-84
2022/03/19 01:15:06;;;;;;;20.90;10.10;;;;;;;6.22;77.62;104325.34;5007072;28;20638;-84
2022/03/19 01:18:05;;;;;;;18.98;9.27;;;;;;;6.09;77.71;104300.53;5002560;28;20365;-84
2022/03/19 01:20:40;;;;;;;;;;;;;;;6.48;76.86;104353.53;5001606;28;20156;-84
2022/03/19 01:23:18;;;;;;;19.10;9.50;;;;;;;6.19;78.30;104320.19;5024481;28;19913;-84
2022/03/19 01:25:52;;;;;;;18.45;9.68;;;;;;;5.99;77.98;104291.16;5017219;28;20064;-84
2022/03/19 01:28:40;;;;;;;17.73;9.13;;;;;;;6.02;78.91;104299.72;5008653;28;20033;-84
2022/03/19 01:31:25;;;;;;;;;;;;;;;;;;;;;
2022/03/19 01:34:14;;;;;;;;;;;;;;;;;;;;;
2022/03/19 01:36:55;;;;;;;19.10;9.32;;;;;;;5.86;79.13;104286.03;5005640;28;20052;-84
2022/03/19 01:39:56;;;;;;;;;;;;;;;;;;;;;
2022/03/19 01:42:30;;;;;;;15.25;8.88;;;;;;;5.82;78.90;104292.06;5004385;28;20052;-83
2022/03/19 01:45:09;;;;;;;20.05;9.27;;;;;;;5.79;79.09;104289.53;5006455;28;20101;-84
2022/03/19 01:48:00;;;;;;;17.10;9.13;;;;;;;5.78;78.73;104292.94;4987602;28;20359;-84
2022/03/19 01:50:28;;;;;;;17.38;9.57;;;;;;;5.71;79.69;104296.44;4988413;28;20129;-84
2022/03/19 01:52:59;;;;;;;20.30;9.07;;;;;;;5.68;79.92;104285.28;5023912;28;20017;-84
2022/03/19 01:55:47;;;;;;;20.48;9.20;;;;;;;5.83;79.59;104316.97;5029675;28;20109;-84
2022/03/19 01:58:15;;;;;;;18.23;9.75;;;;;;;5.88;79.95;104327.25;5029721;28;20095;-85
2022/03/19 02:00:50;;;;;;;20.03;9.33;;;;;;;5.80;80.05;104300.69;5030379;28;20099;-85
2022/03/19 02:03:35;;;;;;;19.10;9.40;;;;;;;5.77;79.62;104306.69;5012380;28;20359;-84
2022/03/19 02:06:13;;;;;;;17.10;8.73;;;;;;;5.69;80.47;104298.16;5011567;28;20120;-84
2022/03/19 02:08:49;;;;;;;;;;;;;;;;;;;;;
2022/03/19 02:11:22;;;;;;;19.45;9.35;;;;;;;5.53;80.43;104268.22;5027952;28;20489;-84
2022/03/19 02:14:13;;;;;;;;;;;;;;;;;;;;;
2022/03/19 02:17:03;;;;;;;15.85;8.90;;;;;;;5.53;80.17;104275.94;5030949;28;20469;-84
2022/03/19 02:19:29;;;;;;;18.20;9.65;;;;;;;5.60;80.75;104298.19;5013232;28;20147;-84
2022/03/19 02:27:54;;;;;;;21.90;10.52;;;;;;;5.44;80.77;104270.81;5011051;28;20047;-84
2022/03/19 02:30:39;;;;;;;18.83;9.50;;;;;;;5.50;80.03;104284.50;4991785;28;20112;-84
2022/03/19 02:33:15;;;;;;;;;;;;;;;;;;;;;
2022/03/19 02:36:16;;;;;;;;;;;;;;;;;;;;;
2022/03/19 02:38:51;;;;;;;18.40;9.57;;;;;;;5.27;80.68;104265.72;5013481;28;20380;-84
2022/03/19 02:41:21;;;;;;;;;;;;;;;5.76;79.61;104335.91;5029327;28;20040;-84
2022/03/19 02:44:09;;;;;;;20.25;10.82;;;;;;;5.36;80.56;104273.44;5010463;28;19909;-84
2022/03/19 02:47:24;;;;;;;19.17;10.38;;;;;;;5.36;80.09;104270.84;5022640;28;20144;-85
2022/03/19 02:50:05;;;;;;;;;;;;;;;;;;;;;
2022/03/19 02:52:53;;;;;;;21.25;11.18;;;;;;;5.41;80.94;104281.13;5029344;28;20022;-84
2022/03/19 02:55:25;;;;;;;22.95;12.07;;;;;;;5.26;81.19;104266.59;4997485;28;20046;-84
2022/03/19 02:58:13;;;;;;;;;;;;;;;;;;;;;
2022/03/19 03:00:49;;;;;;;23.65;11.77;;;;;;;5.32;81.03;104264.84;5018543;28;20042;-84
2022/03/19 03:03:47;;;;;;;;;;;;;;;;;;;;;
2022/03/19 03:06:21;;;;;;;21.38;11.55;;;;;;;5.32;81.76;104264.84;5028655;28;20273;-84
2022/03/19 03:08:52;;;;;;;24.08;12.27;;;;;;;5.28;81.92;104260.59;5029195;28;20033;-84
2022/03/19 03:11:45;;;;;;;20.95;11.90;;;;;;;5.33;81.66;104276.00;5010092;28;20145;-84
2022/03/19 03:14:19;;;;;;;21.75;11.95;;;;;;;5.16;81.83;104245.22;5010683;28;20033;-84
2022/03/19 03:17:01;;;;;;;19.20;11.77;;;;;;;5.39;82.38;104280.28;5028673;28;20029;-84
2022/03/19 03:19:44;;;;;;;22.88;12.45;;;;;;;5.13;82.08;104244.38;5010723;28;20033;-84
2022/03/19 03:22:37;;;;;;;;;;;;;;;;;;;;;
2022/03/19 03:25:06;;;;;;;22.73;12.02;;;;;;;5.13;81.81;104247.78;5027875;28;20420;-83
2022/03/19 03:27:49;;;;;;;;;;;;;;;;;;;;;
2022/03/19 03:30:25;;;;;;;;;;;;;;;;;;;;;
2022/03/19 03:33:00;;;;;;;27.13;12.43;;;;;;;5.00;81.94;104239.28;5027589;28;20124;-84
2022/03/19 03:35:28;;;;;;;23.45;11.55;;;;;;;5.11;82.71;104256.38;5027962;28;20063;-84
2022/03/19 03:37:58;;;;;;;21.37;12.40;;;;;;;5.24;82.81;104271.75;5010972;28;20033;-84
2022/03/19 03:40:37;;;;;;;;;;;;;;;;;;;;;
2022/03/19 03:43:03;;;;;;;;;;;;;;;5.41;81.44;104288.88;5028664;28;20589;-83
2022/03/19 03:45:44;;;;;;;;;;;;;;;;;;;;;
2022/03/19 03:48:20;;;;;;;24.13;12.07;;;;;;;4.99;82.46;104241.84;5029009;28;20029;-84
2022/03/19 03:51:08;;;;;;;;;;;;;;;;;;;;;
2022/03/19 03:53:38;;;;;;;22.90;11.38;;;;;;;5.12;82.21;104258.09;5008780;28;20037;-84
2022/03/19 03:56:06;;;;;;;21.63;11.95;;;;;;;5.04;82.45;104250.38;5008232;28;20132;-84
2022/03/19 03:58:37;;;;;;;22.70;11.35;;;;;;;5.08;82.40;104249.53;5008403;28;20040;-84
2022/03/19 04:01:29;;;;;;;23.75;11.60;;;;;;;4.94;81.98;104238.44;5007233;28;20101;-84
2022/03/19 04:04:05;;;;;;;20.75;11.27;;;;;;;4.85;81.74;104223.03;5008195;28;20033;-84
2022/03/19 04:06:50;;;;;;;20.20;11.20;;;;;;;4.94;82.51;104238.44;5009013;28;20026;-84
2022/03/19 04:09:26;;;;;;;;;;;;;;;;;;;;;
2022/03/19 04:12:22;;;;;;;;;;;;;;;;;;;;;
2022/03/19 04:15:21;;;;;;;;;;;;;;;;;;;;;
2022/03/19 04:18:32;;;;;;;23.70;12.00;;;;;;;4.83;82.15;104224.75;5025231;28;20454;-84
2022/03/19 04:21:10;;;;;;;;;;;;;;;;;;;;;
2022/03/19 04:23:48;;;;;;;;;;;;;;;;;;;;;
2022/03/19 04:26:44;;;;;;;21.98;11.38;;;;;;;4.78;81.99;104228.19;5023854;28;19912;-84
2022/03/19 04:29:24;;;;;;;20.20;11.30;;;;;;;4.62;81.85;104210.22;5009284;28;20029;-84
2022/03/19 04:31:52;;;;;;;24.77;11.30;;;;;;;4.55;81.89;104201.69;5025940;28;20028;-84
2022/03/19 04:34:27;;;;;;;20.70;11.38;;;;;;;4.59;82.14;104200.81;5026542;28;20155;-84
2022/03/19 04:37:10;;;;;;;;;;;;;;;;;;;;;
2022/03/19 04:39:40;;;;;;;21.60;11.02;;;;;;;4.65;81.92;104216.22;5026221;28;20380;-84
2022/03/19 04:42:19;;;;;;;21.17;11.70;;;;;;;4.53;82.35;104200.84;5009375;28;20025;-84
2022/03/19 04:45:02;;;;;;;;;;;;;;;;;;;;;
2022/03/19 04:47:28;;;;;;;20.98;11.27;;;;;;;4.63;81.76;104223.06;5027214;28;20059;-84
2022/03/19 04:50:04;;;;;;;19.35;11.80;;;;;;;4.56;82.29;104211.09;5026536;28;20525;-84
2022/03/19 04:52:35;;;;;;;22.83;11.75;;;;;;;4.62;82.40;104229.06;5027151;28;20432;-84
2022/03/19 04:55:09;;;;;;;22.60;12.02;;;;;;;4.58;82.44;104213.66;4990592;28;20486;-85
2022/03/19 04:57:41;;;;;;;20.00;11.50;;;;;;;4.58;82.38;104224.78;4988691;28;20113;-84
2022/03/19 05:00:28;;;;;;;;;;;;;;;;;;;;;
2022/03/19 05:02:58;;;;;;;22.95;12.15;;;;;;;4.46;82.28;104204.25;5007167;28;20040;-84
2022/03/19 05:05:31;;;;;;;26.13;12.43;;;;;;;4.38;82.61;104190.56;4988248;28;20026;-84
2022/03/19 05:08:09;;;;;;;;;;;;;;;;;;;;;
2022/03/19 05:13:48;;;;;;;20.83;12.10;;;;;;;4.46;82.41;104211.97;5025122;28;20044;-82
2022/03/19 05:16:28;;;;;;;;;;;;;;;;;;;;;
2022/03/19 05:19:04;;;;;;;;;;;;;;;;;;;;;
2022/03/19 05:21:39;;;;;;;23.75;12.43;;;;;;;4.46;82.80;104230.81;5026810;28;20025;-83
2022/03/19 05:24:27;;;;;;;22.10;13.15;;;;;;;4.69;82.90;104268.47;5026415;28;20351;-83
2022/03/19 05:27:04;;;;;;;21.52;13.20;;;;;;;4.42;82.53;104231.69;5008697;28;20068;-84
2022/03/19 05:29:55;;;;;;;20.38;12.98;;;;;;;4.30;82.84;104207.69;5026978;28;20095;-84
2022/03/19 05:32:29;;;;;;;23.02;13.07;;;;;;;4.49;82.51;104246.25;5026010;28;20133;-84
2022/03/19 05:35:14;;;;;;;22.10;12.40;;;;;;;4.30;82.70;104225.69;5008086;28;20486;-84
2022/03/19 05:37:42;;;;;;;20.42;13.00;;;;;;;4.30;82.98;104234.28;5007695;28;20591;-84
2022/03/19 05:40:18;;;;;;;;;;;;;;;;;;;;;
2022/03/19 05:42:54;;;;;;;21.17;12.93;;;;;;;4.29;82.53;104247.09;5010925;28;20037;-84
2022/03/19 05:45:23;;;;;;;21.90;13.50;;;;;;;4.30;82.76;104243.66;5008735;28;20056;-85
2022/03/19 05:48:01;;;;;;;19.25;12.27;;;;;;;4.15;82.83;104229.13;4992841;28;20087;-84
2022/03/19 05:50:53;;;;;;;;;;;;;;;;;;;;;
2022/03/19 05:53:21;;;;;;;23.35;13.52;;;;;;;4.08;83.14;104228.28;4990619;28;20041;-84
2022/03/19 05:56:27;;;;;;;20.33;13.25;;;;;;;4.25;83.06;104256.53;5005377;28;20072;-83
2022/03/19 05:59:23;;;;;;;;;;;;;;;;;;;;;
2022/03/19 06:01:49;;;;;;;24.60;13.65;;;;;;;4.23;83.18;104259.09;4995689;28;20514;-84
2022/03/19 06:04:23;;;;;;;21.73;13.32;;;;;;;4.38;83.31;104288.22;5006122;28;20034;-84
2022/03/19 06:06:58;;;;;;;22.20;14.02;;;;;;;3.99;83.61;104228.25;4987465;28;20030;-83
2022/03/19 06:09:29;;;;;;;21.17;13.45;;;;;;;4.05;83.34;104238.53;4989399;28;20498;-84
2022/03/19 06:12:04;;;;;;;24.05;13.38;;;;;;;4.04;83.63;104236.81;5006699;28;20029;-84
2022/03/19 06:14:30;;;;;;;21.00;12.68;;;;;;;4.04;83.32;104241.97;4989722;28;20032;-84
2022/03/19 06:17:08;;;;;;;;;;;;;;;;;;;;;
2022/03/19 06:23:03;;;;;;;19.90;12.50;;;;;;;4.09;83.53;104247.97;4954942;28;20050;-84
2022/03/19 06:25:44;;;;;;;;;;;;;;;;;;;;;
2022/03/19 06:28:22;;;;;;;21.88;12.93;;;;;;;4.24;83.28;104268.53;5005667;28;20037;-84
2022/03/19 06:31:37;;;;;;;;;;;;;;;;;;;;;
2022/03/19 06:34:30;;;;;;;22.50;13.00;;;;;;;4.47;83.39;104301.06;5025508;28;20488;-84
2022/03/19 06:40:22;;;;;;;23.02;13.02;;;;;;;4.29;83.15;104262.50;5009081;28;20160;-84
2022/03/19 06:42:57;;;;;;;;;;;;;;;;;;;;;
2022/03/19 06:45:30;;;;;;;21.02;13.07;;;;;;;4.36;82.73;104259.06;5009319;28;20507;-84
2022/03/19 06:47:56;;;;;;;24.05;12.70;;;;;;;4.42;82.55;104259.09;4992465;28;20113;-84
2022/03/19 06:50:21;;;;;;;23.88;12.23;;;;;;;4.31;82.45;104230.00;5010719;28;20437;-85
2022/03/19 06:52:46;;;;;;;20.05;12.10;;;;;;;4.55;82.14;104265.94;5012184;28;20037;-85
2022/03/19 06:55:12;;;;;;;16.33;10.60;;;;;;;4.64;81.57;104265.91;4990190;28;20540;-84
2022/03/19 06:57:37;;;;;;;20.00;11.55;;;;;;;4.67;82.03;104280.50;5008783;28;20110;-84
2022/03/19 07:00:03;;;;;;;19.10;11.57;;;;;;;4.68;81.66;104266.78;5008799;28;20050;-84
2022/03/19 07:02:29;;;;;;;19.02;10.82;;;;;;;4.82;81.18;104282.16;5008428;28;20426;-85
2022/03/19 07:04:54;;;;;;;20.67;10.73;;;;;;;4.75;80.79;104269.31;5008979;28;20034;-84
2022/03/19 07:07:20;;;;;;;18.88;10.93;;;;;;;4.81;80.81;104273.59;5019513;28;20720;-85
2022/03/19 07:09:45;;;;;;;22.98;11.15;;;;;;;4.87;80.17;104283.00;5002891;28;20480;-86
2022/03/19 07:12:11;;;;;;;20.13;10.50;;;;;;;4.95;80.20;104291.59;4990476;28;20017;-85
2022/03/19 07:14:52;;;;;;;18.95;10.20;;;;;;;4.94;80.22;104269.31;5008024;28;20045;-84
2022/03/19 07:17:17;;;;;;;19.35;10.30;;;;;;;5.01;80.14;104282.13;5008045;28;20419;-83
2022/03/19 07:19:43;;;;;;;19.23;10.07;;;;;;;5.05;79.51;104277.84;4990654;28;20034;-85
2022/03/19 07:22:08;;;;;;;17.77;9.88;;;;;;;5.11;79.21;104282.97;5002490;28;20029;-85
2022/03/19 07:24:34;;;;;;;16.73;9.55;;;;;;;5.11;79.40;104270.09;5027631;28;20080;-85
2022/03/19 07:26:59;;;;;;;16.85;9.55;;;;;;;5.15;78.86;104276.94;5010167;28;20065;-85
2022/03/19 07:29:24;;;;;;;22.08;9.43;;;;;;;5.19;78.40;104278.63;5007396;28;20049;-84
2022/03/19 07:31:49;;;;;;;17.33;10.15;;;;;;;5.22;79.42;104270.94;4988694;28;20102;-84
2022/03/19 07:34:15;;;;;;;19.00;9.52;;;;;;;5.13;78.53;104250.38;5007156;28;20371;-84
2022/03/19 07:36:41;;;;;;;16.75;9.68;;;;;;;5.40;78.42;104279.44;5008189;28;20458;-85
2022/03/19 07:39:06;;;;;;;14.95;9.02;;;;;;;5.37;78.10;104274.28;4988824;28;20037;-84
2022/03/19 07:41:48;;;;;;;15.43;8.82;;;;;;;5.38;77.10;104268.25;5006201;28;20030;-84
2022/03/19 07:44:15;;;;;;;18.55;9.13;;;;;;;5.47;77.78;104275.97;5006397;28;20068;-85
2022/03/19 07:46:42;;;;;;;18.10;8.85;;;;;;;5.50;76.50;104273.34;5007293;28;20112;-85
2022/03/19 07:49:07;;;;;;;17.30;8.73;;;;;;;5.51;76.66;104262.22;4987081;28;20097;-85
2022/03/19 07:51:33;;;;;;;17.08;8.90;;;;;;;5.53;75.87;104261.34;4988772;28;20072;-84
2022/03/19 07:53:58;;;;;;;16.42;8.75;;;;;;;5.56;76.02;104255.28;5005754;28;20045;-84
2022/03/19 07:56:24;;;;;;;15.82;9.25;;;;;;;5.63;76.03;104267.28;5006637;28;20045;-85
2022/03/19 07:58:50;;;;;;;16.08;8.30;;;;;;;5.76;75.95;104263.78;5004317;28;20034;-86
2022/03/19 08:01:20;;;;;;;16.52;8.82;;;;;;;5.70;75.69;104268.97;4989028;28;20037;-85
2022/03/19 08:03:46;;;;;;;16.60;8.48;;;;;;;5.81;75.28;104272.34;5004069;28;20415;-84
2022/03/19 08:06:11;;;;;;;16.83;8.30;;;;;;;5.82;74.45;104268.88;4987767;28;20210;-85
2022/03/19 08:08:40;;;;;;;18.20;8.30;;;;;;;5.83;74.29;104265.44;5006499;28;20032;-85
2022/03/19 08:11:05;;;;;;;16.00;8.02;;;;;;;5.88;75.15;104256.84;4986552;28;20030;-85
2022/03/19 08:13:31;;;;;;;16.40;8.43;;;;;;;5.93;74.53;104260.28;4989999;28;20076;-85
2022/03/19 08:15:57;;;;;;;17.23;8.10;;;;;;;5.94;74.59;104247.38;5009098;28;20514;-85
2022/03/19 08:18:23;;;;;;;16.73;7.82;;;;;;;6.02;73.52;104280.81;4989182;28;20462;-85
2022/03/19 08:20:49;;;;;;;15.80;7.53;;;;;;;6.04;73.48;104264.47;5008926;28;20537;-84
2022/03/19 08:23:19;;;;;;;15.43;8.40;;;;;;;6.09;74.76;104257.56;5008576;28;20065;-85
2022/03/19 08:25:45;;;;;;;18.48;8.00;;;;;;;6.18;74.35;104259.22;5002455;28;20056;-85
2022/03/19 08:28:10;;;;;;;14.23;7.93;;;;;;;6.24;73.39;104261.72;5006951;28;20057;-85
2022/03/19 08:30:36;;;;;;;15.95;7.78;;;;;;;6.37;73.90;104273.66;5025306;28;20025;-85
2022/03/19 08:33:02;;;;;;;17.38;8.48;;;;;;;6.43;72.63;104266.75;5027221;28;20445;-84
2022/03/19 08:35:27;;;;;;;16.25;7.85;;;;;;;6.45;71.55;104276.19;4994721;28;20057;-86
2022/03/19 08:40:15;;;;;;;14.18;7.03;;;;;;;6.50;72.21;104278.72;4988177;28;20045;-86
2022/03/19 08:40:38;;;;;;;13.77;7.25;;;;;;;6.57;72.76;104259.72;5004881;28;20384;-85
2022/03/19 08:43:04;;;;;;;15.43;7.57;;;;;;;6.57;72.19;104254.56;5005624;28;20484;-86
2022/03/19 08:45:33;;;;;;;17.08;7.80;;;;;;;6.63;71.67;104255.34;4987491;28;20112;-85
2022/03/19 08:48:01;;;;;;;17.60;8.15;;;;;;;6.72;72.43;104263.91;4989578;28;20042;-86
2022/03/19 08:50:28;;;;;;;14.55;7.18;;;;;;;6.91;71.11;104280.88;5020622;28;20030;-86
2022/03/19 08:52:54;;;;;;;18.48;7.40;;;;;;;6.93;71.04;104254.16;5007460;28;20030;-84
2022/03/19 08:55:20;;;;;;;13.10;7.38;;;;;;;6.82;70.33;104235.38;4978435;28;20030;-86
2022/03/19 08:57:45;;;;;;;16.23;7.47;;;;;;;6.77;70.64;104211.38;4990206;28;20029;-86
2022/03/19 09:00:13;;;;;;;15.48;7.53;;;;;;;6.88;69.85;104219.84;5015323;28;20381;-86
2022/03/19 09:02:38;;;;;;;18.33;7.78;;;;;;;7.29;69.84;104254.63;4992376;28;20125;-86
2022/03/19 09:05:04;;;;;;;16.55;7.25;;;;;;;7.33;70.05;104237.34;5026087;28;20195;-86
2022/03/19 09:07:30;;;;;;;13.70;7.20;;;;;;;7.29;69.44;104226.22;5026324;28;20025;-85
2022/03/19 09:09:55;;;;;;;14.38;6.82;;;;;;;7.26;68.34;104205.59;5022363;28;20409;-85
2022/03/19 09:12:22;;;;;;;12.52;7.70;;;;;;;7.42;68.45;104238.09;5006887;28;20355;-86
2022/03/19 09:14:48;;;;;;;14.15;6.95;;;;;;;7.39;67.50;104201.09;4987736;28;20057;-85
2022/03/19 09:17:13;;;;;;;15.20;7.13;;;;;;;7.47;67.39;104198.44;5006735;28;20320;-85
2022/03/19 09:19:41;;;;;;;17.17;6.80;;;;;;;7.65;65.70;104218.81;4988872;28;20443;-85
2022/03/19 09:22:06;;;;;;;15.23;6.80;;;;;;;7.72;64.81;104220.44;4972563;28;20145;-86
2022/03/19 09:24:32;;;;;;;14.50;6.88;;;;;;;7.84;64.36;104225.41;4990077;28;20101;-87
2022/03/19 09:26:58;;;;;;;15.27;7.13;;;;;;;7.72;64.05;104194.59;5005210;28;20034;-87
2022/03/19 09:29:24;;;;;;;14.77;6.82;;;;;;;7.99;64.51;104225.19;5006134;28;20466;-86
2022/03/19 09:31:50;;;;;;;12.68;5.68;;;;;;;8.03;62.75;104204.44;4990629;28;20034;-85
2022/03/19 09:34:16;;;;;;;14.02;6.25;;;;;;;8.33;61.56;104252.22;4986431;28;20038;-86
2022/03/19 09:36:46;;;;;;;12.07;6.28;;;;;;;8.04;62.24;104169.97;4972210;28;20414;-86
2022/03/19 09:39:15;;;;;;;13.95;6.00;;;;;;;8.33;62.47;104197.91;5005812;28;20438;-87
2022/03/19 09:41:42;;;;;;;11.40;6.05;;;;;;;8.30;61.12;104183.28;5021509;28;20049;-86
2022/03/19 09:44:13;;;;;;;12.07;5.95;;;;;;;8.31;59.96;104184.97;5007793;28;20025;-88
2022/03/19 09:46:41;;;;;;;12.13;5.88;;;;;;;8.55;59.96;104198.38;5001561;28;20176;-90
2022/03/19 09:49:16;;;;;;;11.93;6.30;;;;;;;8.46;62.10;104164.03;5006326;28;20041;-88
2022/03/19 09:51:50;;;;;;;13.40;5.63;;;;;;;8.63;61.20;104165.44;5002999;28;20462;-88
2022/03/19 09:54:15;;;;;;;13.05;5.55;;;;;;;8.86;59.15;104172.75;5009148;28;20184;-86
2022/03/19 09:56:41;;;;;;;11.55;4.60;;;;;;;8.84;56.54;104170.19;5008110;28;20442;-86
2022/03/19 09:59:09;;;;;;;9.48;4.75;;;;;;;9.03;54.53;104194.81;5007876;28;20122;-86
2022/03/19 10:01:37;;;;;;;;;;;;;;;9.21;57.95;104206.50;5020230;28;20172;-86
2022/03/19 10:04:04;;;;;;;11.20;4.40;;;;;;;9.27;53.17;104195.16;5024385;28;19954;-86
2022/03/19 10:09:18;;;;;;;9.90;3.67;;;;;;;9.42;49.38;104205.19;5021916;28;20778;-86
2022/03/19 10:11:48;;;;;;;9.18;3.53;;;;;;;9.15;50.53;104139.31;4987451;28;20038;-86
2022/03/19 10:14:19;;;;;;;8.25;3.08;;;;;;;9.13;47.94;104140.22;4988423;28;20036;-86
2022/03/19 10:16:49;;;;;;;9.40;3.13;;;;;;;9.17;46.67;104136.66;4976304;28;20045;-86
2022/03/19 10:19:14;;;;;;;11.43;3.53;;;;;;;9.46;47.21;104162.78;5008271;28;20120;-86
2022/03/19 10:21:42;;;;;;;9.70;3.30;;;;;;;9.37;46.57;104144.84;5010432;28;20117;-86
2022/03/19 10:24:26;;;;;;;8.75;3.58;;;;;;;9.63;49.19;104156.31;5009006;28;20456;-86
2022/03/19 10:26:51;;;;;;;8.07;3.45;;;;;;;9.73;47.14;104160.41;5010509;28;20109;-86
2022/03/19 10:29:26;;;;;;;8.32;3.78;;;;;;;9.86;47.56;104164.38;5029471;28;20029;-86
2022/03/19 10:31:56;;;;;;;6.63;2.97;;;;;;;9.84;45.09;104176.53;5027744;28;20037;-85
2022/03/19 10:34:21;;;;;;;9.55;3.40;;;;;;;9.81;44.46;104150.69;5029726;28;20075;-84
2022/03/19 10:36:49;;;;;;;8.57;3.35;;;;;;;9.85;44.57;104162.69;5012189;28;20499;-86
2022/03/19 10:39:25;;;;;;;10.90;3.40;;;;;;;9.93;46.19;104155.56;5012134;28;20429;-85
2022/03/19 10:41:50;;;;;;;8.35;3.40;;;;;;;9.93;45.41;104128.78;4994391;28;20081;-83
2022/03/19 10:44:19;;;;;;;9.35;3.38;;;;;;;10.10;46.85;104152.53;5008855;28;20034;-84
2022/03/19 10:47:04;;;;;;;6.43;2.70;;;;;;;10.09;45.85;104130.06;4974328;28;20129;-84
2022/03/19 10:49:30;;;;;;;8.88;3.30;;;;;;;10.16;43.02;104141.16;4996694;28;20035;-84
2022/03/19 10:52:02;;;;;;;8.55;3.25;;;;;;;10.22;45.42;104135.81;5010614;28;20033;-84
2022/03/19 10:54:28;;;;;;;7.20;3.10;;;;;;;10.33;44.49;104121.66;5028227;28;20129;-83
2022/03/19 10:56:53;;;;;;;9.30;3.15;;;;;;;10.35;43.61;104111.25;4999728;28;20024;-83
2022/03/19 10:59:19;;;;;;;9.23;3.00;;;;;;;10.48;43.67;104128.16;5008696;28;20053;-82
2022/03/19 11:01:49;;;;;;;9.07;3.20;;;;;;;10.56;44.76;104123.63;4972998;28;20030;-82
2022/03/19 11:04:14;;;;;;;8.23;3.03;;;;;;;10.58;42.04;104114.03;5007226;28;20501;-84
2022/03/19 11:06:42;;;;;;;8.93;3.20;;;;;;;10.71;42.26;104118.84;5006509;28;20042;-83
2022/03/19 11:09:10;;;;;;;7.22;2.80;;;;;;;10.70;42.25;104105.03;4991714;28;20552;-84
2022/03/19 11:11:57;;;;;;;;;;;;;;;10.85;44.35;104111.53;5010934;28;20069;-83
2022/03/19 11:14:25;;;;;;;6.88;2.40;;;;;;;10.89;39.06;104107.91;4995576;28;19922;-84
2022/03/19 11:17:25;;;;;;;7.07;2.72;;;;;;;10.92;40.59;104118.22;5010020;28;20025;-84
2022/03/19 11:20:04;;;;;;;7.72;2.20;;;;;;;10.87;35.95;104105.38;5008698;28;20078;-85
2022/03/19 11:22:46;;;;;;;8.50;2.25;;;;;;;10.81;34.63;104078.75;5026830;28;20108;-84
2022/03/19 11:25:24;;;;;;;5.03;2.25;;;;;;;10.96;36.29;104083.47;5020164;28;20120;-84
2022/03/19 11:27:52;;;;;;;7.90;2.72;;;;;;;10.89;37.90;104071.56;5025124;28;20033;-84
2022/03/19 11:30:23;;;;;;;6.50;2.40;;;;;;;10.99;36.41;104083.38;5026861;28;20493;-84
2022/03/19 11:33:09;;;;;;;6.43;2.17;;;;;;;10.97;36.53;104069.59;4999509;28;20099;-83
2022/03/19 11:35:39;;;;;;;5.93;2.10;;;;;;;10.97;33.88;104059.19;5008266;28;20036;-83
2022/03/19 11:38:22;;;;;;;6.45;2.45;;;;;;;11.08;36.17;104082.25;5012258;28;20567;-82
2022/03/19 11:40:54;;;;;;;5.90;2.30;;;;;;;11.08;34.19;104071.84;5010813;28;20038;-84
2022/03/19 11:43:31;;;;;;;6.47;2.30;;;;;;;11.16;35.77;104054.25;5022286;28;20029;-83
2022/03/19 11:46:03;;;;;;;7.32;2.40;;;;;;;11.19;36.69;104056.78;5017096;28;20041;-83
2022/03/19 11:48:34;;;;;;;6.00;2.35;;;;;;;11.24;34.44;104056.59;4998569;28;20029;-83
2022/03/19 11:51:18;;;;;;;8.07;2.17;;;;;;;11.25;35.79;104042.72;5008684;28;20060;-83
2022/03/19 11:53:59;;;;;;;7.25;2.28;;;;;;;11.26;34.64;104029.69;4989532;28;20025;-83
2022/03/19 11:56:48;;;;;;;3.30;1.65;;;;;;;11.37;34.21;104037.13;5026806;28;20045;-83
2022/03/19 11:59:16;;;;;;;;;;;;;;;11.46;34.65;104025.53;5007297;28;20063;-84
2022/03/19 12:01:54;;;;;;;7.18;1.83;;;;;;;11.54;32.85;104024.41;4990275;28;19925;-83
2022/03/19 12:04:21;;;;;;;5.13;1.92;;;;;;;11.56;31.35;104022.59;5007524;28;20518;-83
2022/03/19 12:06:58;;;;;;;6.63;2.10;;;;;;;11.51;32.92;104002.84;5007662;28;20026;-83
2022/03/19 12:09:53;;;;;;;6.00;2.15;;;;;;;11.69;33.91;104015.19;5007247;28;20597;-83
2022/03/19 12:12:21;;;;;;;5.47;2.35;;;;;;;11.82;35.03;104013.06;5022985;28;20092;-83
2022/03/19 12:14:47;;;;;;;6.95;2.45;;;;;;;11.76;35.99;104008.06;5011741;28;20026;-83
2022/03/19 12:17:27;;;;;;;8.18;2.67;;;;;;;11.80;35.93;103999.22;5022685;28;20515;-83
2022/03/19 12:19:58;;;;;;;7.68;2.90;;;;;;;11.60;36.52;103981.75;5002309;28;20128;-84
2022/03/19 12:22:27;;;;;;;7.55;2.53;;;;;;;11.84;34.94;103990.44;5027487;28;20037;-84
2022/03/19 12:25:01;;;;;;;7.80;2.10;;;;;;;11.78;35.69;103975.03;5007204;28;20052;-83
2022/03/19 12:27:26;;;;;;;6.13;2.45;;;;;;;11.86;34.16;103973.84;5023370;28;20598;-84
2022/03/19 12:29:52;;;;;;;6.93;2.35;;;;;;;11.82;33.29;103971.44;5026930;28;20108;-84
2022/03/19 12:32:17;;;;;;;6.13;2.17;;;;;;;11.74;33.35;103968.22;5026435;28;20021;-83
2022/03/19 12:34:44;;;;;;;6.82;2.25;;;;;;;11.69;33.01;103956.25;5026170;28;20040;-83
2022/03/19 12:37:09;;;;;;;6.25;2.22;;;;;;;11.69;33.73;103948.44;5011102;28;20380;-83
2022/03/19 12:39:34;;;;;;;4.82;2.03;;;;;;;11.82;33.94;103950.66;5008462;28;20453;-83
2022/03/19 12:42:01;;;;;;;5.35;1.85;;;;;;;11.89;33.79;103946.91;5006765;28;20503;-83
2022/03/19 12:44:29;;;;;;;6.72;2.10;;;;;;;11.80;33.33;103929.84;5027001;28;20029;-84
2022/03/19 12:47:01;;;;;;;7.25;2.30;;;;;;;11.99;33.76;103931.81;5017405;28;20038;-83
2022/03/19 12:49:28;;;;;;;6.40;2.03;;;;;;;12.01;33.86;103936.03;5005252;28;20033;-83
2022/03/19 12:51:54;;;;;;;6.35;2.47;;;;;;;12.01;34.18;103924.78;5022333;28;20095;-83
2022/03/19 12:54:19;;;;;;;5.97;2.15;;;;;;;12.08;34.02;103931.44;5005929;28;20406;-84
2022/03/19 12:56:46;;;;;;;7.80;2.10;;;;;;;12.08;33.54;103916.69;5013711;28;20021;-83
2022/03/19 12:59:24;;;;;;;5.90;2.00;;;;;;;12.10;34.01;103914.00;5007977;28;20522;-83
2022/03/19 13:01:50;;;;;;;5.70;2.13;;;;;;;11.97;32.96;103898.03;5012670;28;20032;-83
2022/03/19 13:04:30;;;;;;;6.50;2.00;;;;;;;11.93;32.58;103901.69;5008578;28;20063;-84
2022/03/19 13:06:57;;;;;;;5.63;2.00;;;;;;;11.94;32.95;103895.56;5015327;28;20033;-84
2022/03/19 13:09:31;;;;;;;5.88;1.80;;;;;;;11.98;33.07;103883.28;5002934;28;20029;-83
2022/03/19 13:11:58;;;;;;;5.07;1.70;;;;;;;11.95;32.08;103900.69;5006487;28;20022;-83
2022/03/19 13:14:24;;;;;;;3.20;1.38;;;;;;;11.93;32.23;103865.25;4989195;28;20026;-83
2022/03/19 13:16:55;;;;;;;4.72;1.75;;;;;;;11.99;32.73;103891.03;5016037;28;20052;-83
2022/03/19 13:19:25;;;;;;;6.72;1.90;;;;;;;12.00;33.00;103879.72;5012567;28;20033;-84